sensor_id;sensor_type;location;lat;lon;timestamp;P1;durP1;ratioP1;P2;durP2;ratioP2
41468;SDS011;27206;47.032;15.484;2022-08-14T00:01:40;53.45;;;23.73;;
41468;SDS011;27206;47.032;15.484;2022-08-14T00:04:06;10.25;;;6.55;;
41468;SDS011;27206;47.032;15.484;2022-08-14T00:06:31;8.93;;;5.53;;
41468;SDS011;27206;47.032;15.484;2022-08-14T00:08:57;8.32;;;5.47;;
41468;SDS011;27206;47.032;15.484;2022-08-14T00:11:23;8.07;;;5.78;;
41468;SDS011;27206;47.032;15.484;2022-08-14T00:13:49;7.38;;;5.63;;
41468;SDS011;27206;47.032;15.484;2022-08-14T00:16:14;10.55;;;5.22;;
41468;SDS011;27206;47.032;15.484;2022-08-14T00:18:40;9.70;;;5.50;;
41468;SDS011;27206;47.032;15.484;2022-08-14T00:21:06;10.13;;;5.50;;
41468;SDS011;27206;47.032;15.484;2022-08-14T00:23:32;6.97;;;5.53;;
41468;SDS011;27206;47.032;15.484;2022-08-14T00:25:58;8.50;;;5.10;;
41468;SDS011;27206;47.032;15.484;2022-08-14T00:28:24;8.27;;;5.40;;
41468;SDS011;27206;47.032;15.484;2022-08-14T00:30:53;8.98;;;5.78;;
41468;SDS011;27206;47.032;15.484;2022-08-14T00:33:22;7.60;;;5.38;;
41468;SDS011;27206;47.032;15.484;2022-08-14T00:35:51;7.55;;;5.40;;
41468;SDS011;27206;47.032;15.484;2022-08-14T00:38:18;10.25;;;5.78;;
41468;SDS011;27206;47.032;15.484;2022-08-14T00:40:44;9.15;;;5.57;;
41468;SDS011;27206;47.032;15.484;2022-08-14T00:43:10;8.10;;;5.38;;
41468;SDS011;27206;47.032;15.484;2022-08-14T00:45:35;9.73;;;5.53;;
41468;SDS011;27206;47.032;15.484;2022-08-14T00:48:01;7.57;;;5.47;;
41468;SDS011;27206;47.032;15.484;2022-08-14T00:50:28;9.30;;;5.38;;
41468;SDS011;27206;47.032;15.484;2022-08-14T00:52:55;8.82;;;5.30;;
41468;SDS011;27206;47.032;15.484;2022-08-14T00:55:24;9.55;;;5.47;;
41468;SDS011;27206;47.032;15.484;2022-08-14T00:57:51;6.88;;;5.45;;
41468;SDS011;27206;47.032;15.484;2022-08-14T01:00:35;7.13;;;5.47;;
41468;SDS011;27206;47.032;15.484;2022-08-14T01:03:02;9.38;;;6.05;;
41468;SDS011;27206;47.032;15.484;2022-08-14T01:05:29;7.90;;;5.78;;
41468;SDS011;27206;47.032;15.484;2022-08-14T01:07:55;7.90;;;5.93;;
41468;SDS011;27206;47.032;15.484;2022-08-14T01:10:28;11.30;;;5.60;;
41468;SDS011;27206;47.032;15.484;2022-08-14T01:13:13;8.68;;;5.90;;
41468;SDS011;27206;47.032;15.484;2022-08-14T01:15:44;9.25;;;5.20;;
41468;SDS011;27206;47.032;15.484;2022-08-14T01:18:12;15.73;;;5.70;;
41468;SDS011;27206;47.032;15.484;2022-08-14T01:20:56;9.23;;;5.68;;
41468;SDS011;27206;47.032;15.484;2022-08-14T01:23:51;9.18;;;5.60;;
41468;SDS011;27206;47.032;15.484;2022-08-14T01:26:20;8.98;;;5.88;;
41468;SDS011;27206;47.032;15.484;2022-08-14T01:28:48;10.82;;;5.43;;
41468;SDS011;27206;47.032;15.484;2022-08-14T01:31:19;7.88;;;5.68;;
41468;SDS011;27206;47.032;15.484;2022-08-14T01:33:48;8.65;;;5.80;;
41468;SDS011;27206;47.032;15.484;2022-08-14T01:36:17;7.70;;;5.45;;
41468;SDS011;27206;47.032;15.484;2022-08-14T01:38:48;7.75;;;5.50;;
41468;SDS011;27206;47.032;15.484;2022-08-14T01:41:16;8.30;;;5.93;;
41468;SDS011;27206;47.032;15.484;2022-08-14T01:43:46;8.13;;;6.20;;
41468;SDS011;27206;47.032;15.484;2022-08-14T01:46:18;8.20;;;5.97;;
41468;SDS011;27206;47.032;15.484;2022-08-14T01:48:45;11.05;;;5.95;;
41468;SDS011;27206;47.032;15.484;2022-08-14T01:51:13;9.05;;;5.55;;
41468;SDS011;27206;47.032;15.484;2022-08-14T01:53:42;8.05;;;5.50;;
41468;SDS011;27206;47.032;15.484;2022-08-14T01:56:11;7.18;;;5.60;;
41468;SDS011;27206;47.032;15.484;2022-08-14T01:58:42;7.63;;;5.95;;
41468;SDS011;27206;47.032;15.484;2022-08-14T02:01:12;9.85;;;5.70;;
41468;SDS011;27206;47.032;15.484;2022-08-14T02:03:39;9.25;;;5.28;;
41468;SDS011;27206;47.032;15.484;2022-08-14T02:06:06;8.82;;;5.45;;
41468;SDS011;27206;47.032;15.484;2022-08-14T02:08:32;9.65;;;5.88;;
41468;SDS011;27206;47.032;15.484;2022-08-14T02:11:02;8.85;;;5.43;;
41468;SDS011;27206;47.032;15.484;2022-08-14T02:16:25;8.40;;;5.57;;
41468;SDS011;27206;47.032;15.484;2022-08-14T02:18:57;9.38;;;5.90;;
41468;SDS011;27206;47.032;15.484;2022-08-14T02:21:24;8.10;;;5.10;;
41468;SDS011;27206;47.032;15.484;2022-08-14T02:23:53;8.60;;;5.90;;
41468;SDS011;27206;47.032;15.484;2022-08-14T02:26:21;9.27;;;5.53;;
41468;SDS011;27206;47.032;15.484;2022-08-14T02:28:50;9.10;;;5.88;;
41468;SDS011;27206;47.032;15.484;2022-08-14T02:31:18;10.00;;;5.75;;
41468;SDS011;27206;47.032;15.484;2022-08-14T02:33:44;9.52;;;5.50;;
41468;SDS011;27206;47.032;15.484;2022-08-14T02:36:12;6.47;;;5.15;;
41468;SDS011;27206;47.032;15.484;2022-08-14T02:38:38;7.97;;;5.45;;
41468;SDS011;27206;47.032;15.484;2022-08-14T02:41:07;7.80;;;5.80;;
41468;SDS011;27206;47.032;15.484;2022-08-14T02:43:33;8.35;;;5.30;;
41468;SDS011;27206;47.032;15.484;2022-08-14T02:45:59;9.60;;;5.43;;
41468;SDS011;27206;47.032;15.484;2022-08-14T02:48:27;10.75;;;5.82;;
41468;SDS011;27206;47.032;15.484;2022-08-14T02:50:55;8.95;;;5.70;;
41468;SDS011;27206;47.032;15.484;2022-08-14T02:53:21;8.30;;;5.70;;
41468;SDS011;27206;47.032;15.484;2022-08-14T02:55:46;8.98;;;6.00;;
41468;SDS011;27206;47.032;15.484;2022-08-14T02:58:12;8.73;;;6.28;;
41468;SDS011;27206;47.032;15.484;2022-08-14T03:00:39;9.75;;;6.22;;
41468;SDS011;27206;47.032;15.484;2022-08-14T03:03:04;9.82;;;6.35;;
41468;SDS011;27206;47.032;15.484;2022-08-14T03:05:30;9.00;;;5.82;;
41468;SDS011;27206;47.032;15.484;2022-08-14T03:08:05;9.35;;;5.47;;
41468;SDS011;27206;47.032;15.484;2022-08-14T03:10:33;8.15;;;6.18;;
41468;SDS011;27206;47.032;15.484;2022-08-14T03:13:00;8.50;;;5.95;;
41468;SDS011;27206;47.032;15.484;2022-08-14T03:15:28;11.82;;;6.15;;
41468;SDS011;27206;47.032;15.484;2022-08-14T03:17:55;8.82;;;5.57;;
41468;SDS011;27206;47.032;15.484;2022-08-14T03:20:20;8.35;;;5.53;;
41468;SDS011;27206;47.032;15.484;2022-08-14T03:22:46;14.82;;;6.00;;
41468;SDS011;27206;47.032;15.484;2022-08-14T03:25:12;9.70;;;6.88;;
41468;SDS011;27206;47.032;15.484;2022-08-14T03:27:37;9.95;;;6.05;;
41468;SDS011;27206;47.032;15.484;2022-08-14T03:30:03;9.57;;;6.22;;
41468;SDS011;27206;47.032;15.484;2022-08-14T03:32:30;8.63;;;5.90;;
41468;SDS011;27206;47.032;15.484;2022-08-14T03:35:00;8.52;;;5.88;;
41468;SDS011;27206;47.032;15.484;2022-08-14T03:37:26;7.80;;;5.75;;
41468;SDS011;27206;47.032;15.484;2022-08-14T03:39:52;7.88;;;5.45;;
41468;SDS011;27206;47.032;15.484;2022-08-14T03:42:17;11.80;;;6.20;;
41468;SDS011;27206;47.032;15.484;2022-08-14T03:44:43;8.23;;;5.60;;
41468;SDS011;27206;47.032;15.484;2022-08-14T03:47:09;7.70;;;5.82;;
41468;SDS011;27206;47.032;15.484;2022-08-14T03:49:36;7.93;;;5.88;;
41468;SDS011;27206;47.032;15.484;2022-08-14T03:52:03;9.35;;;5.50;;
41468;SDS011;27206;47.032;15.484;2022-08-14T03:54:29;8.82;;;5.80;;
41468;SDS011;27206;47.032;15.484;2022-08-14T03:56:59;9.45;;;6.07;;
41468;SDS011;27206;47.032;15.484;2022-08-14T03:59:26;7.85;;;5.82;;
41468;SDS011;27206;47.032;15.484;2022-08-14T04:01:51;8.32;;;6.07;;
41468;SDS011;27206;47.032;15.484;2022-08-14T04:04:17;8.10;;;6.05;;
41468;SDS011;27206;47.032;15.484;2022-08-14T04:06:43;10.00;;;6.47;;
41468;SDS011;27206;47.032;15.484;2022-08-14T04:09:09;7.55;;;5.78;;
41468;SDS011;27206;47.032;15.484;2022-08-14T04:11:35;9.70;;;6.40;;
41468;SDS011;27206;47.032;15.484;2022-08-14T04:14:02;7.75;;;6.13;;
41468;SDS011;27206;47.032;15.484;2022-08-14T04:16:29;8.60;;;6.47;;
41468;SDS011;27206;47.032;15.484;2022-08-14T04:18:56;9.77;;;6.53;;
41468;SDS011;27206;47.032;15.484;2022-08-14T04:21:23;10.10;;;6.30;;
41468;SDS011;27206;47.032;15.484;2022-08-14T04:23:53;9.48;;;6.45;;
41468;SDS011;27206;47.032;15.484;2022-08-14T04:26:22;10.45;;;6.07;;
41468;SDS011;27206;47.032;15.484;2022-08-14T04:28:48;8.38;;;6.45;;
41468;SDS011;27206;47.032;15.484;2022-08-14T04:31:15;8.05;;;5.80;;
41468;SDS011;27206;47.032;15.484;2022-08-14T04:33:45;10.15;;;6.63;;
41468;SDS011;27206;47.032;15.484;2022-08-14T04:36:12;7.97;;;6.20;;
41468;SDS011;27206;47.032;15.484;2022-08-14T04:38:38;7.97;;;6.15;;
41468;SDS011;27206;47.032;15.484;2022-08-14T04:41:22;9.75;;;6.88;;
41468;SDS011;27206;47.032;15.484;2022-08-14T04:44:06;8.35;;;6.00;;
41468;SDS011;27206;47.032;15.484;2022-08-14T04:46:32;8.68;;;6.63;;
41468;SDS011;27206;47.032;15.484;2022-08-14T04:48:59;12.50;;;6.35;;
41468;SDS011;27206;47.032;15.484;2022-08-14T04:51:26;9.95;;;6.28;;
41468;SDS011;27206;47.032;15.484;2022-08-14T04:53:53;9.13;;;6.78;;
41468;SDS011;27206;47.032;15.484;2022-08-14T04:56:23;9.52;;;6.55;;
41468;SDS011;27206;47.032;15.484;2022-08-14T04:58:52;9.20;;;6.57;;
41468;SDS011;27206;47.032;15.484;2022-08-14T05:01:24;10.77;;;7.35;;
41468;SDS011;27206;47.032;15.484;2022-08-14T05:03:51;12.05;;;7.35;;
41468;SDS011;27206;47.032;15.484;2022-08-14T05:06:17;10.85;;;7.72;;
41468;SDS011;27206;47.032;15.484;2022-08-14T05:08:43;9.82;;;7.35;;
41468;SDS011;27206;47.032;15.484;2022-08-14T05:11:09;13.07;;;6.75;;
41468;SDS011;27206;47.032;15.484;2022-08-14T05:13:35;9.48;;;6.72;;
41468;SDS011;27206;47.032;15.484;2022-08-14T05:16:02;10.50;;;6.97;;
41468;SDS011;27206;47.032;15.484;2022-08-14T05:18:33;9.98;;;7.15;;
41468;SDS011;27206;47.032;15.484;2022-08-14T05:21:01;8.95;;;7.00;;
41468;SDS011;27206;47.032;15.484;2022-08-14T05:23:33;9.07;;;7.00;;
41468;SDS011;27206;47.032;15.484;2022-08-14T05:26:00;10.30;;;6.97;;
41468;SDS011;27206;47.032;15.484;2022-08-14T05:28:36;10.05;;;6.82;;
41468;SDS011;27206;47.032;15.484;2022-08-14T05:31:03;10.30;;;7.47;;
41468;SDS011;27206;47.032;15.484;2022-08-14T05:33:33;8.57;;;6.90;;
41468;SDS011;27206;47.032;15.484;2022-08-14T05:36:00;11.98;;;7.43;;
41468;SDS011;27206;47.032;15.484;2022-08-14T05:38:29;9.50;;;7.25;;
41468;SDS011;27206;47.032;15.484;2022-08-14T05:41:02;9.68;;;6.90;;
41468;SDS011;27206;47.032;15.484;2022-08-14T05:43:29;8.00;;;6.05;;
41468;SDS011;27206;47.032;15.484;2022-08-14T05:45:58;8.55;;;6.78;;
41468;SDS011;27206;47.032;15.484;2022-08-14T05:48:25;9.05;;;6.82;;
41468;SDS011;27206;47.032;15.484;2022-08-14T05:50:53;8.60;;;6.65;;
41468;SDS011;27206;47.032;15.484;2022-08-14T05:53:23;9.32;;;6.78;;
41468;SDS011;27206;47.032;15.484;2022-08-14T05:55:50;8.15;;;6.15;;
41468;SDS011;27206;47.032;15.484;2022-08-14T05:58:17;11.00;;;6.43;;
41468;SDS011;27206;47.032;15.484;2022-08-14T06:00:46;8.85;;;6.53;;
41468;SDS011;27206;47.032;15.484;2022-08-14T06:03:16;9.48;;;6.85;;
41468;SDS011;27206;47.032;15.484;2022-08-14T06:05:50;9.32;;;6.72;;
41468;SDS011;27206;47.032;15.484;2022-08-14T06:10:44;9.30;;;6.60;;
41468;SDS011;27206;47.032;15.484;2022-08-14T06:13:10;9.65;;;5.80;;
41468;SDS011;27206;47.032;15.484;2022-08-14T06:15:37;7.70;;;5.88;;
41468;SDS011;27206;47.032;15.484;2022-08-14T06:18:03;8.15;;;5.95;;
41468;SDS011;27206;47.032;15.484;2022-08-14T06:20:29;8.13;;;6.45;;
41468;SDS011;27206;47.032;15.484;2022-08-14T06:22:56;7.75;;;6.32;;
41468;SDS011;27206;47.032;15.484;2022-08-14T06:25:22;8.73;;;6.25;;
41468;SDS011;27206;47.032;15.484;2022-08-14T06:27:48;10.63;;;6.68;;
41468;SDS011;27206;47.032;15.484;2022-08-14T06:30:15;8.40;;;6.20;;
41468;SDS011;27206;47.032;15.484;2022-08-14T06:32:43;8.30;;;6.43;;
41468;SDS011;27206;47.032;15.484;2022-08-14T06:35:09;11.38;;;6.63;;
41468;SDS011;27206;47.032;15.484;2022-08-14T06:37:50;7.80;;;5.90;;
41468;SDS011;27206;47.032;15.484;2022-08-14T06:40:18;9.15;;;5.97;;
41468;SDS011;27206;47.032;15.484;2022-08-14T06:42:44;9.50;;;6.70;;
41468;SDS011;27206;47.032;15.484;2022-08-14T06:45:10;7.55;;;5.88;;
41468;SDS011;27206;47.032;15.484;2022-08-14T06:47:37;8.82;;;6.10;;
41468;SDS011;27206;47.032;15.484;2022-08-14T06:50:05;7.07;;;5.45;;
41468;SDS011;27206;47.032;15.484;2022-08-14T06:52:34;10.95;;;6.03;;
41468;SDS011;27206;47.032;15.484;2022-08-14T06:55:00;8.95;;;6.60;;
41468;SDS011;27206;47.032;15.484;2022-08-14T06:57:32;9.98;;;5.75;;
41468;SDS011;27206;47.032;15.484;2022-08-14T07:00:00;9.45;;;6.00;;
41468;SDS011;27206;47.032;15.484;2022-08-14T07:02:25;8.48;;;6.38;;
41468;SDS011;27206;47.032;15.484;2022-08-14T07:05:09;8.25;;;6.50;;
41468;SDS011;27206;47.032;15.484;2022-08-14T07:07:53;9.48;;;6.70;;
41468;SDS011;27206;47.032;15.484;2022-08-14T07:10:19;8.50;;;5.97;;
41468;SDS011;27206;47.032;15.484;2022-08-14T07:12:51;9.77;;;6.22;;
41468;SDS011;27206;47.032;15.484;2022-08-14T07:15:17;9.80;;;6.38;;
41468;SDS011;27206;47.032;15.484;2022-08-14T07:17:46;12.85;;;7.22;;
41468;SDS011;27206;47.032;15.484;2022-08-14T07:20:13;9.85;;;6.60;;
41468;SDS011;27206;47.032;15.484;2022-08-14T07:22:41;11.55;;;7.07;;
41468;SDS011;27206;47.032;15.484;2022-08-14T07:25:07;11.75;;;7.53;;
41468;SDS011;27206;47.032;15.484;2022-08-14T07:27:33;8.77;;;6.07;;
41468;SDS011;27206;47.032;15.484;2022-08-14T07:30:00;12.05;;;6.22;;
41468;SDS011;27206;47.032;15.484;2022-08-14T07:32:27;7.55;;;5.60;;
41468;SDS011;27206;47.032;15.484;2022-08-14T07:34:53;8.10;;;5.75;;
41468;SDS011;27206;47.032;15.484;2022-08-14T07:37:19;7.80;;;5.40;;
41468;SDS011;27206;47.032;15.484;2022-08-14T07:39:44;8.43;;;5.75;;
41468;SDS011;27206;47.032;15.484;2022-08-14T07:42:10;8.65;;;5.65;;
41468;SDS011;27206;47.032;15.484;2022-08-14T07:44:36;8.23;;;5.68;;
41468;SDS011;27206;47.032;15.484;2022-08-14T07:47:02;7.60;;;5.45;;
41468;SDS011;27206;47.032;15.484;2022-08-14T07:49:28;7.57;;;5.30;;
41468;SDS011;27206;47.032;15.484;2022-08-14T07:51:56;6.88;;;5.18;;
41468;SDS011;27206;47.032;15.484;2022-08-14T07:54:23;7.35;;;5.03;;
41468;SDS011;27206;47.032;15.484;2022-08-14T07:56:50;12.82;;;5.97;;
41468;SDS011;27206;47.032;15.484;2022-08-14T07:59:15;6.47;;;5.10;;
41468;SDS011;27206;47.032;15.484;2022-08-14T08:01:44;9.25;;;4.97;;
41468;SDS011;27206;47.032;15.484;2022-08-14T08:04:11;7.72;;;5.40;;
41468;SDS011;27206;47.032;15.484;2022-08-14T08:06:37;7.20;;;5.30;;
41468;SDS011;27206;47.032;15.484;2022-08-14T08:09:03;6.53;;;4.68;;
41468;SDS011;27206;47.032;15.484;2022-08-14T08:11:35;7.30;;;5.32;;
41468;SDS011;27206;47.032;15.484;2022-08-14T08:14:02;8.57;;;5.63;;
41468;SDS011;27206;47.032;15.484;2022-08-14T08:16:33;7.38;;;4.82;;
41468;SDS011;27206;47.032;15.484;2022-08-14T08:19:05;6.28;;;4.80;;
41468;SDS011;27206;47.032;15.484;2022-08-14T08:21:32;10.18;;;5.28;;
41468;SDS011;27206;47.032;15.484;2022-08-14T08:24:04;7.10;;;4.85;;
41468;SDS011;27206;47.032;15.484;2022-08-14T08:26:33;8.30;;;5.00;;
41468;SDS011;27206;47.032;15.484;2022-08-14T08:28:59;8.52;;;5.30;;
41468;SDS011;27206;47.032;15.484;2022-08-14T08:31:25;7.20;;;5.32;;
41468;SDS011;27206;47.032;15.484;2022-08-14T08:33:51;8.20;;;5.60;;
41468;SDS011;27206;47.032;15.484;2022-08-14T08:36:17;6.80;;;4.60;;
41468;SDS011;27206;47.032;15.484;2022-08-14T08:38:43;6.15;;;5.07;;
41468;SDS011;27206;47.032;15.484;2022-08-14T08:41:10;6.05;;;4.45;;
41468;SDS011;27206;47.032;15.484;2022-08-14T08:43:36;7.30;;;4.72;;
41468;SDS011;27206;47.032;15.484;2022-08-14T08:46:04;6.05;;;4.28;;
41468;SDS011;27206;47.032;15.484;2022-08-14T08:48:47;7.60;;;4.93;;
41468;SDS011;27206;47.032;15.484;2022-08-14T08:51:31;6.18;;;4.90;;
41468;SDS011;27206;47.032;15.484;2022-08-14T08:54:07;5.22;;;4.10;;
41468;SDS011;27206;47.032;15.484;2022-08-14T09:02:03;6.05;;;4.38;;
41468;SDS011;27206;47.032;15.484;2022-08-14T09:04:34;6.50;;;4.50;;
41468;SDS011;27206;47.032;15.484;2022-08-14T09:07:02;5.63;;;3.72;;
41468;SDS011;27206;47.032;15.484;2022-08-14T09:09:29;5.70;;;3.80;;
41468;SDS011;27206;47.032;15.484;2022-08-14T09:11:56;5.75;;;4.13;;
41468;SDS011;27206;47.032;15.484;2022-08-14T09:14:24;5.10;;;4.10;;
41468;SDS011;27206;47.032;15.484;2022-08-14T09:16:53;5.68;;;3.90;;
41468;SDS011;27206;47.032;15.484;2022-08-14T09:19:20;6.13;;;3.88;;
41468;SDS011;27206;47.032;15.484;2022-08-14T09:21:46;6.85;;;4.05;;
41468;SDS011;27206;47.032;15.484;2022-08-14T09:24:13;5.25;;;4.22;;
41468;SDS011;27206;47.032;15.484;2022-08-14T09:26:39;4.93;;;4.03;;
41468;SDS011;27206;47.032;15.484;2022-08-14T09:29:06;4.57;;;4.07;;
41468;SDS011;27206;47.032;15.484;2022-08-14T09:31:34;5.35;;;3.60;;
41468;SDS011;27206;47.032;15.484;2022-08-14T09:36:56;6.05;;;4.10;;
41468;SDS011;27206;47.032;15.484;2022-08-14T09:42:25;5.20;;;3.80;;
41468;SDS011;27206;47.032;15.484;2022-08-14T09:45:07;5.50;;;4.18;;
41468;SDS011;27206;47.032;15.484;2022-08-14T09:47:42;5.70;;;4.03;;
41468;SDS011;27206;47.032;15.484;2022-08-14T09:52:58;5.78;;;5.05;;
41468;SDS011;27206;47.032;15.484;2022-08-14T09:55:30;29.23;;;22.80;;
41468;SDS011;27206;47.032;15.484;2022-08-14T09:58:11;6.53;;;5.28;;
41468;SDS011;27206;47.032;15.484;2022-08-14T10:00:51;6.85;;;4.30;;
41468;SDS011;27206;47.032;15.484;2022-08-14T10:03:27;5.38;;;4.00;;
41468;SDS011;27206;47.032;15.484;2022-08-14T10:06:06;4.80;;;3.90;;
41468;SDS011;27206;47.032;15.484;2022-08-14T10:11:25;5.32;;;3.95;;
41468;SDS011;27206;47.032;15.484;2022-08-14T10:13:57;4.82;;;3.90;;
41468;SDS011;27206;47.032;15.484;2022-08-14T10:16:26;5.93;;;4.00;;
41468;SDS011;27206;47.032;15.484;2022-08-14T10:19:00;5.65;;;4.03;;
41468;SDS011;27206;47.032;15.484;2022-08-14T10:21:34;5.60;;;4.07;;
41468;SDS011;27206;47.032;15.484;2022-08-14T10:24:05;6.35;;;3.90;;
41468;SDS011;27206;47.032;15.484;2022-08-14T10:26:34;4.70;;;3.90;;
41468;SDS011;27206;47.032;15.484;2022-08-14T10:29:04;4.97;;;3.72;;
41468;SDS011;27206;47.032;15.484;2022-08-14T10:31:35;5.97;;;3.92;;
41468;SDS011;27206;47.032;15.484;2022-08-14T10:34:03;4.85;;;3.80;;
41468;SDS011;27206;47.032;15.484;2022-08-14T10:36:32;5.18;;;4.05;;
41468;SDS011;27206;47.032;15.484;2022-08-14T10:39:00;4.47;;;3.80;;
41468;SDS011;27206;47.032;15.484;2022-08-14T10:41:48;4.38;;;3.70;;
41468;SDS011;27206;47.032;15.484;2022-08-14T10:44:23;4.35;;;3.60;;
41468;SDS011;27206;47.032;15.484;2022-08-14T10:46:57;5.18;;;3.63;;
41468;SDS011;27206;47.032;15.484;2022-08-14T10:49:27;4.22;;;3.65;;
41468;SDS011;27206;47.032;15.484;2022-08-14T10:54:40;4.80;;;4.10;;
41468;SDS011;27206;47.032;15.484;2022-08-14T10:57:14;5.10;;;3.53;;
41468;SDS011;27206;47.032;15.484;2022-08-14T10:59:58;6.13;;;3.95;;
41468;SDS011;27206;47.032;15.484;2022-08-14T11:05:01;5.95;;;3.92;;
41468;SDS011;27206;47.032;15.484;2022-08-14T11:07:39;4.95;;;3.72;;
41468;SDS011;27206;47.032;15.484;2022-08-14T11:10:09;5.28;;;3.97;;
41468;SDS011;27206;47.032;15.484;2022-08-14T11:12:46;5.40;;;4.00;;
41468;SDS011;27206;47.032;15.484;2022-08-14T11:15:18;3.85;;;3.15;;
41468;SDS011;27206;47.032;15.484;2022-08-14T11:17:45;4.57;;;3.60;;
41468;SDS011;27206;47.032;15.484;2022-08-14T11:20:13;5.53;;;4.28;;
41468;SDS011;27206;47.032;15.484;2022-08-14T11:22:59;4.85;;;3.65;;
41468;SDS011;27206;47.032;15.484;2022-08-14T11:25:29;5.07;;;3.70;;
41468;SDS011;27206;47.032;15.484;2022-08-14T11:28:01;4.70;;;3.90;;
41468;SDS011;27206;47.032;15.484;2022-08-14T11:30:28;4.13;;;3.55;;
41468;SDS011;27206;47.032;15.484;2022-08-14T11:32:55;5.07;;;3.90;;
41468;SDS011;27206;47.032;15.484;2022-08-14T11:35:23;4.28;;;3.30;;
41468;SDS011;27206;47.032;15.484;2022-08-14T11:37:52;5.13;;;3.67;;
41468;SDS011;27206;47.032;15.484;2022-08-14T11:40:27;4.28;;;3.40;;
41468;SDS011;27206;47.032;15.484;2022-08-14T11:42:55;4.70;;;3.45;;
41468;SDS011;27206;47.032;15.484;2022-08-14T11:45:22;6.55;;;3.53;;
41468;SDS011;27206;47.032;15.484;2022-08-14T11:47:50;6.45;;;3.58;;
41468;SDS011;27206;47.032;15.484;2022-08-14T11:50:18;4.30;;;3.40;;
41468;SDS011;27206;47.032;15.484;2022-08-14T11:53:02;5.40;;;3.60;;
41468;SDS011;27206;47.032;15.484;2022-08-14T11:55:32;4.50;;;3.42;;
41468;SDS011;27206;47.032;15.484;2022-08-14T11:58:00;4.43;;;3.45;;
41468;SDS011;27206;47.032;15.484;2022-08-14T12:00:33;5.85;;;3.80;;
41468;SDS011;27206;47.032;15.484;2022-08-14T12:03:13;4.65;;;3.40;;
41468;SDS011;27206;47.032;15.484;2022-08-14T12:05:39;6.43;;;3.63;;
41468;SDS011;27206;47.032;15.484;2022-08-14T12:08:06;4.85;;;3.60;;
41468;SDS011;27206;47.032;15.484;2022-08-14T12:10:37;4.30;;;3.47;;
41468;SDS011;27206;47.032;15.484;2022-08-14T12:13:18;5.30;;;3.40;;
41468;SDS011;27206;47.032;15.484;2022-08-14T12:15:46;4.65;;;3.45;;
41468;SDS011;27206;47.032;15.484;2022-08-14T12:18:28;4.53;;;3.38;;
41468;SDS011;27206;47.032;15.484;2022-08-14T12:21:08;6.88;;;3.70;;
41468;SDS011;27206;47.032;15.484;2022-08-14T12:26:29;5.25;;;3.50;;
41468;SDS011;27206;47.032;15.484;2022-08-14T12:31:33;4.47;;;3.35;;
41468;SDS011;27206;47.032;15.484;2022-08-14T12:34:01;4.47;;;3.25;;
41468;SDS011;27206;47.032;15.484;2022-08-14T12:36:29;4.32;;;3.53;;
41468;SDS011;27206;47.032;15.484;2022-08-14T12:38:56;4.60;;;3.45;;
41468;SDS011;27206;47.032;15.484;2022-08-14T12:41:23;3.90;;;3.50;;
41468;SDS011;27206;47.032;15.484;2022-08-14T12:46:36;4.15;;;3.28;;
41468;SDS011;27206;47.032;15.484;2022-08-14T12:51:35;4.35;;;3.03;;
41468;SDS011;27206;47.032;15.484;2022-08-14T12:54:10;4.28;;;3.28;;
41468;SDS011;27206;47.032;15.484;2022-08-14T12:56:38;4.72;;;3.20;;
41468;SDS011;27206;47.032;15.484;2022-08-14T12:59:04;4.53;;;3.30;;
41468;SDS011;27206;47.032;15.484;2022-08-14T13:01:32;3.92;;;3.22;;
41468;SDS011;27206;47.032;15.484;2022-08-14T13:04:04;4.20;;;3.28;;
41468;SDS011;27206;47.032;15.484;2022-08-14T13:09:08;4.68;;;3.30;;
41468;SDS011;27206;47.032;15.484;2022-08-14T13:14:06;6.13;;;3.10;;
41468;SDS011;27206;47.032;15.484;2022-08-14T13:16:32;4.60;;;3.17;;
41468;SDS011;27206;47.032;15.484;2022-08-14T13:18:58;4.47;;;3.30;;
41468;SDS011;27206;47.032;15.484;2022-08-14T13:21:25;6.03;;;3.03;;
41468;SDS011;27206;47.032;15.484;2022-08-14T13:23:53;3.30;;;2.70;;
41468;SDS011;27206;47.032;15.484;2022-08-14T13:26:19;5.38;;;3.05;;
41468;SDS011;27206;47.032;15.484;2022-08-14T13:28:49;4.35;;;3.42;;
41468;SDS011;27206;47.032;15.484;2022-08-14T13:31:16;4.38;;;3.10;;
41468;SDS011;27206;47.032;15.484;2022-08-14T13:33:48;4.18;;;3.10;;
41468;SDS011;27206;47.032;15.484;2022-08-14T13:36:15;3.60;;;3.13;;
41468;SDS011;27206;47.032;15.484;2022-08-14T13:38:44;3.65;;;3.20;;
41468;SDS011;27206;47.032;15.484;2022-08-14T13:41:13;3.72;;;2.80;;
41468;SDS011;27206;47.032;15.484;2022-08-14T13:43:41;5.88;;;3.15;;
41468;SDS011;27206;47.032;15.484;2022-08-14T13:46:08;3.40;;;2.90;;
41468;SDS011;27206;47.032;15.484;2022-08-14T13:48:34;4.40;;;3.42;;
41468;SDS011;27206;47.032;15.484;2022-08-14T13:51:02;4.47;;;3.30;;
41468;SDS011;27206;47.032;15.484;2022-08-14T13:53:31;4.65;;;3.50;;
41468;SDS011;27206;47.032;15.484;2022-08-14T13:56:08;3.78;;;3.00;;
41468;SDS011;27206;47.032;15.484;2022-08-14T13:58:35;4.38;;;3.00;;
41468;SDS011;27206;47.032;15.484;2022-08-14T14:01:01;3.63;;;2.88;;
41468;SDS011;27206;47.032;15.484;2022-08-14T14:03:27;5.32;;;3.33;;
41468;SDS011;27206;47.032;15.484;2022-08-14T14:05:53;4.03;;;3.00;;
41468;SDS011;27206;47.032;15.484;2022-08-14T14:08:20;5.13;;;2.70;;
41468;SDS011;27206;47.032;15.484;2022-08-14T14:10:48;4.20;;;3.20;;
41468;SDS011;27206;47.032;15.484;2022-08-14T14:13:16;4.57;;;3.10;;
41468;SDS011;27206;47.032;15.484;2022-08-14T14:15:43;3.75;;;3.00;;
41468;SDS011;27206;47.032;15.484;2022-08-14T14:18:10;4.07;;;3.00;;
41468;SDS011;27206;47.032;15.484;2022-08-14T14:20:37;4.35;;;3.40;;
41468;SDS011;27206;47.032;15.484;2022-08-14T14:23:07;3.97;;;3.22;;
41468;SDS011;27206;47.032;15.484;2022-08-14T14:25:34;3.85;;;3.10;;
41468;SDS011;27206;47.032;15.484;2022-08-14T14:28:06;4.68;;;2.70;;
41468;SDS011;27206;47.032;15.484;2022-08-14T14:30:32;5.38;;;3.30;;
41468;SDS011;27206;47.032;15.484;2022-08-14T14:32:59;3.72;;;2.75;;
41468;SDS011;27206;47.032;15.484;2022-08-14T14:35:25;4.45;;;3.38;;
41468;SDS011;27206;47.032;15.484;2022-08-14T14:37:52;3.80;;;3.00;;
41468;SDS011;27206;47.032;15.484;2022-08-14T14:40:18;3.92;;;2.95;;
41468;SDS011;27206;47.032;15.484;2022-08-14T14:42:49;4.15;;;2.90;;
41468;SDS011;27206;47.032;15.484;2022-08-14T14:45:17;3.95;;;2.85;;
41468;SDS011;27206;47.032;15.484;2022-08-14T14:47:45;4.65;;;3.22;;
41468;SDS011;27206;47.032;15.484;2022-08-14T14:50:13;4.13;;;3.08;;
41468;SDS011;27206;47.032;15.484;2022-08-14T14:52:39;3.72;;;2.70;;
41468;SDS011;27206;47.032;15.484;2022-08-14T14:55:07;4.03;;;2.70;;
41468;SDS011;27206;47.032;15.484;2022-08-14T14:57:36;5.13;;;2.65;;
41468;SDS011;27206;47.032;15.484;2022-08-14T15:00:13;3.67;;;2.83;;
41468;SDS011;27206;47.032;15.484;2022-08-14T15:02:44;5.05;;;3.10;;
41468;SDS011;27206;47.032;15.484;2022-08-14T15:05:15;4.97;;;2.80;;
41468;SDS011;27206;47.032;15.484;2022-08-14T15:07:41;3.42;;;2.70;;
41468;SDS011;27206;47.032;15.484;2022-08-14T15:10:09;3.95;;;2.85;;
41468;SDS011;27206;47.032;15.484;2022-08-14T15:12:36;3.83;;;2.92;;
41468;SDS011;27206;47.032;15.484;2022-08-14T15:15:02;3.58;;;2.80;;
41468;SDS011;27206;47.032;15.484;2022-08-14T15:17:29;4.95;;;3.05;;
41468;SDS011;27206;47.032;15.484;2022-08-14T15:20:04;3.83;;;3.05;;
41468;SDS011;27206;47.032;15.484;2022-08-14T15:22:35;4.00;;;2.92;;
41468;SDS011;27206;47.032;15.484;2022-08-14T15:25:02;4.05;;;3.00;;
41468;SDS011;27206;47.032;15.484;2022-08-14T15:27:28;4.43;;;3.33;;